createdAt,value
2022-11-28T00:01:34.343Z,10.43
2022-11-28T00:06:36.633Z,10.77
2022-11-28T00:11:35.466Z,11.13
2022-11-28T00:16:33.713Z,12.03
2022-11-28T00:21:33.570Z,12.27
2022-11-28T00:26:33.958Z,11.70
2022-11-28T00:31:35.605Z,11.60
2022-11-28T00:36:35.229Z,9.80
2022-11-28T00:41:35.303Z,11.50
2022-11-28T00:46:33.324Z,12.00
2022-11-28T00:51:33.847Z,11.97
2022-11-28T00:56:35.631Z,12.13
2022-11-28T01:01:35.579Z,11.90
2022-11-28T01:06:36.674Z,10.93
2022-11-28T01:11:38.150Z,10.57
2022-11-28T01:16:36.245Z,10.93
2022-11-28T01:21:34.705Z,11.90
2022-11-28T01:26:34.104Z,11.87
2022-11-28T01:31:33.671Z,12.50
2022-11-28T01:36:31.790Z,11.03
2022-11-28T01:41:30.254Z,11.83
2022-11-28T01:46:28.879Z,12.30
2022-11-28T01:51:29.091Z,13.40
2022-11-28T01:56:32.564Z,13.47
2022-11-28T02:01:30.966Z,12.53
2022-11-28T02:06:31.970Z,12.20
2022-11-28T02:11:59.415Z,12.97
2022-11-28T02:17:09.045Z,13.37
2022-11-28T02:22:11.815Z,13.90
2022-11-28T02:27:24.089Z,14.00
2022-11-28T02:32:51.450Z,12.70
2022-11-28T02:37:59.145Z,12.70
2022-11-28T02:43:06.189Z,12.00
2022-11-28T02:48:09.592Z,12.00
2022-11-28T02:53:11.470Z,11.67
2022-11-28T02:58:11.277Z,12.30
2022-11-28T03:03:39.898Z,12.20
2022-11-28T03:08:47.200Z,10.50
2022-11-28T03:13:57.018Z,10.93
2022-11-28T03:19:02.956Z,11.60
2022-11-28T03:24:04.632Z,11.10
2022-11-28T03:29:09.988Z,10.83
2022-11-28T03:34:15.244Z,11.13
2022-11-28T03:39:17.253Z,11.60
2022-11-28T03:44:20.269Z,11.90
2022-11-28T03:49:25.887Z,11.73
2022-11-28T03:54:29.054Z,11.60
2022-11-28T03:59:32.629Z,11.50
2022-11-28T04:04:37.811Z,10.50
2022-11-28T04:09:43.571Z,11.60
2022-11-28T04:14:47.872Z,13.20
2022-11-28T04:19:51.782Z,11.73
2022-11-28T04:24:53.849Z,11.10
2022-11-28T04:29:55.753Z,11.30
2022-11-28T04:35:00.530Z,12.10
2022-11-28T04:39:59.442Z,13.40
2022-11-28T04:45:03.888Z,12.57
2022-11-28T04:50:03.374Z,12.80
2022-11-28T04:55:08.945Z,12.10
2022-11-28T05:00:09.774Z,11.83
2022-11-28T05:05:13.373Z,10.30
2022-11-28T05:10:12.976Z,11.00
2022-11-28T05:15:12.023Z,11.83
2022-11-28T05:20:12.193Z,10.17
2022-11-28T05:25:10.747Z,10.50
2022-11-28T05:30:11.122Z,11.57
2022-11-28T05:35:10.965Z,10.90
2022-11-28T05:40:10.161Z,11.87
2022-11-28T05:45:09.212Z,11.73
2022-11-28T05:50:09.009Z,12.60
2022-11-28T05:55:09.428Z,12.37
2022-11-28T06:00:08.842Z,11.50
2022-11-28T06:05:34.790Z,12.00
2022-11-28T06:10:29.405Z,12.07
2022-11-28T06:15:27.424Z,11.07
2022-11-28T06:20:25.729Z,11.20
2022-11-28T06:25:23.890Z,12.60
2022-11-28T06:30:23.318Z,12.60
2022-11-28T06:35:21.355Z,12.90
2022-11-28T06:40:19.545Z,13.60
2022-11-28T06:45:17.705Z,11.33
2022-11-28T06:50:17.154Z,12.77
2022-11-28T06:55:15.269Z,12.70
2022-11-28T07:00:14.321Z,14.20
2022-11-28T07:05:12.333Z,13.67
2022-11-28T07:10:12.491Z,12.50
2022-11-28T07:15:11.331Z,14.40
2022-11-28T07:20:10.872Z,12.33
2022-11-28T07:25:11.179Z,12.70
2022-11-28T07:30:11.014Z,13.97
2022-11-28T07:35:09.754Z,14.83
2022-11-28T07:40:08.988Z,13.53
2022-11-28T07:45:09.646Z,13.40
2022-11-28T07:50:09.038Z,13.47
2022-11-28T07:55:07.914Z,14.40
2022-11-28T08:00:08.689Z,14.83
2022-11-28T08:05:10.963Z,14.07
2022-11-28T08:10:10.319Z,13.63
2022-11-28T08:15:10.490Z,14.10
2022-11-28T08:20:10.090Z,13.50
2022-11-28T08:25:08.697Z,14.87
2022-11-28T08:30:10.155Z,14.87
2022-11-28T08:35:08.632Z,14.00
2022-11-28T08:40:08.177Z,14.07
2022-11-28T08:45:08.025Z,13.77
2022-11-28T08:50:08.881Z,15.73
2022-11-28T08:55:07.526Z,14.73
2022-11-28T09:00:06.323Z,16.20
2022-11-28T09:05:04.831Z,14.57
2022-11-28T09:10:04.634Z,12.83
2022-11-28T09:15:02.694Z,14.90
2022-11-28T09:20:00.730Z,15.57
2022-11-28T09:24:58.774Z,14.50
2022-11-28T09:29:58.183Z,13.87
2022-11-28T09:34:56.205Z,14.30
2022-11-28T09:40:12.195Z,14.20
2022-11-28T09:45:16.940Z,15.00
2022-11-28T09:50:19.557Z,14.83
2022-11-28T09:55:22.659Z,14.23
2022-11-28T10:00:24.845Z,14.90
2022-11-28T10:05:30.080Z,14.10
2022-11-28T10:10:37.627Z,15.67
2022-11-28T10:15:45.528Z,15.23
2022-11-28T10:20:46.695Z,15.07
2022-11-28T10:25:49.456Z,15.43
2022-11-28T10:30:53.839Z,16.93
2022-11-28T10:35:54.933Z,15.83
2022-11-28T10:40:59.510Z,16.27
2022-11-28T10:46:14.517Z,15.40
2022-11-28T10:51:25.149Z,15.07
2022-11-28T10:56:36.024Z,15.40
2022-11-28T11:01:38.991Z,16.50
2022-11-28T11:06:47.739Z,14.70
2022-11-28T11:12:00.850Z,16.23
2022-11-28T11:17:00.263Z,14.40
2022-11-28T11:22:04.318Z,14.57
2022-11-28T11:27:08.090Z,14.90
2022-11-28T11:32:17.712Z,14.40
2022-11-28T11:37:21.742Z,15.17
2022-11-28T11:42:24.609Z,15.20
2022-11-28T11:47:42.113Z,15.23
2022-11-28T11:52:40.232Z,14.77
2022-11-28T11:57:40.919Z,14.67
2022-11-28T12:02:45.157Z,14.77
2022-11-28T12:07:51.356Z,13.60
2022-11-28T12:12:49.546Z,13.07
2022-11-28T12:18:02.373Z,13.43
2022-11-28T12:23:15.803Z,14.13
2022-11-28T12:28:27.736Z,13.10
2022-11-28T12:33:40.096Z,12.57
2022-11-28T12:38:59.558Z,14.00
2022-11-28T12:44:04.503Z,11.73
2022-11-28T12:49:17.392Z,13.73
2022-11-28T12:54:41.820Z,12.90
2022-11-28T12:59:49.950Z,11.60
2022-11-28T13:05:10.618Z,12.80
2022-11-28T13:10:16.455Z,13.70
2022-11-28T13:15:21.975Z,14.07
2022-11-28T13:20:29.704Z,14.60
2022-11-28T13:25:36.866Z,12.70
2022-11-28T13:30:43.627Z,14.50
2022-11-28T13:35:45.320Z,15.57
2022-11-28T13:40:50.157Z,15.00
2022-11-28T13:45:48.651Z,14.03
2022-11-28T13:51:00.965Z,14.67
2022-11-28T13:56:21.787Z,13.27
2022-11-28T14:01:22.294Z,15.07
2022-11-28T14:06:24.606Z,15.33
2022-11-28T14:11:42.046Z,16.10
2022-11-28T14:16:52.982Z,16.67
2022-11-28T14:22:08.455Z,16.80
2022-11-28T14:27:08.099Z,15.80
2022-11-28T14:32:29.180Z,15.87
2022-11-28T14:37:52.813Z,15.33
2022-11-28T14:43:31.636Z,15.10
2022-11-28T14:48:31.111Z,17.83
2022-11-28T14:53:49.858Z,17.37
2022-11-28T14:58:49.364Z,17.90
2022-11-28T15:03:55.021Z,17.50
2022-11-28T15:09:07.034Z,19.53
2022-11-28T15:14:15.131Z,17.20
2022-11-28T15:19:21.165Z,19.17
2022-11-28T15:24:26.649Z,18.70
2022-11-28T15:29:26.570Z,23.07
2022-11-28T15:34:27.657Z,18.37
2022-11-28T15:39:31.510Z,19.67
2022-11-28T15:44:30.469Z,19.30
2022-11-28T15:49:31.388Z,19.20
2022-11-28T15:54:42.070Z,18.83
2022-11-28T15:59:40.338Z,19.63
2022-11-28T16:04:39.686Z,20.30
2022-11-28T16:09:39.314Z,19.30
2022-11-28T16:14:45.565Z,17.90
2022-11-28T16:19:45.409Z,18.43
2022-11-28T16:24:48.223Z,20.30
2022-11-28T16:29:47.308Z,19.90
2022-11-28T16:34:47.214Z,20.70
2022-11-28T16:39:46.882Z,18.83
2022-11-28T16:44:45.365Z,19.60
2022-11-28T16:50:16.177Z,20.33
2022-11-28T16:55:46.017Z,19.13
2022-11-28T17:00:47.698Z,21.10
2022-11-28T17:05:45.767Z,20.63
2022-11-28T17:10:45.972Z,20.97
2022-11-28T17:15:44.010Z,22.40
2022-11-28T17:20:42.163Z,20.87
2022-11-28T17:25:40.177Z,23.50
2022-11-28T17:30:39.593Z,24.87
2022-11-28T17:35:42.469Z,24.53
2022-11-28T17:40:42.161Z,22.40
2022-11-28T17:45:41.588Z,24.47
2022-11-28T17:50:39.632Z,24.73
2022-11-28T17:55:42.150Z,26.13
2022-11-28T18:00:41.689Z,25.03
2022-11-28T18:05:41.178Z,24.50
2022-11-28T18:10:39.767Z,26.43
2022-11-28T18:15:39.363Z,24.17
2022-11-28T18:20:39.820Z,29.27
2022-11-28T18:25:42.586Z,26.53
2022-11-28T18:30:43.238Z,26.47
2022-11-28T18:35:42.675Z,25.80
2022-11-28T18:40:40.949Z,26.30
2022-11-28T18:45:39.095Z,27.90
2022-11-28T18:50:37.162Z,27.57
2022-11-28T18:55:36.566Z,28.57
2022-11-28T19:00:34.666Z,27.17
2022-11-28T19:05:37.832Z,28.80
2022-11-28T19:10:40.879Z,29.30
2022-11-28T19:15:40.859Z,27.93
2022-11-28T19:20:42.558Z,28.00
2022-11-28T19:25:44.269Z,28.80
2022-11-28T19:30:42.828Z,30.23
2022-11-28T19:35:40.974Z,27.27
2022-11-28T19:40:38.993Z,28.77
2022-11-28T19:45:38.873Z,27.40
2022-11-28T19:50:36.924Z,27.70
2022-11-28T19:55:36.150Z,27.67
2022-11-28T20:00:34.505Z,29.00
2022-11-28T20:05:34.832Z,27.53
2022-11-28T20:10:36.552Z,29.23
2022-11-28T20:15:36.706Z,28.23
2022-11-28T20:20:36.986Z,28.30
2022-11-28T20:25:35.064Z,29.47
2022-11-28T20:30:36.449Z,29.97
2022-11-28T20:35:35.875Z,27.37
2022-11-28T20:40:33.955Z,27.50
2022-11-28T20:45:32.973Z,26.30
2022-11-28T20:50:31.055Z,28.97
2022-11-28T20:55:30.510Z,28.07
2022-11-28T21:00:28.542Z,28.00
2022-11-28T21:05:26.641Z,27.77
2022-11-28T21:10:26.061Z,26.80
2022-11-28T21:15:26.236Z,28.13
2022-11-28T21:20:24.736Z,26.50
2022-11-28T21:25:23.398Z,27.50
2022-11-28T21:30:21.462Z,27.03
2022-11-28T21:35:20.875Z,26.77
2022-11-28T21:40:19.138Z,28.60
2022-11-28T21:45:17.284Z,26.03
2022-11-28T21:50:16.854Z,24.67
2022-11-28T21:55:16.419Z,26.93
2022-11-28T22:00:31.652Z,27.40
2022-11-28T22:05:34.983Z,25.67
2022-11-28T22:10:34.997Z,26.13
2022-11-28T22:15:33.559Z,26.83
2022-11-28T22:20:32.129Z,25.70
2022-11-28T22:25:30.222Z,25.00
2022-11-28T22:30:29.918Z,28.37
2022-11-28T22:35:28.587Z,25.30
2022-11-28T22:40:26.620Z,24.43
2022-11-28T22:45:24.955Z,25.87
2022-11-28T22:50:24.718Z,26.77
2022-11-28T22:55:22.771Z,25.67
2022-11-28T23:00:21.779Z,24.53
2022-11-28T23:05:20.203Z,25.70
2022-11-28T23:10:20.701Z,25.70
2022-11-28T23:15:19.433Z,25.00
2022-11-28T23:20:18.074Z,25.10
2022-11-28T23:25:16.285Z,25.93
2022-11-28T23:30:16.295Z,24.80
2022-11-28T23:35:14.625Z,24.67
2022-11-28T23:40:13.266Z,24.53
2022-11-28T23:45:12.492Z,24.77
2022-11-28T23:50:12.307Z,24.87
2022-11-28T23:55:10.628Z,25.17
